Time;durP1;ratioP1;P1;durP2;ratioP2;P2;SDS_P1;SDS_P2;PMS_P1;PMS_P2;Temp;Humidity;BMP_temperature;BMP_pressure;BME280_temperature;BME280_humidity;BME280_pressure;Samples;Min_cycle;Max_cycle;Signal;HPM_P1;HPM_P2
2023/02/12 00:01:41;;;;;;;63.23;32.90;;;-2.80;99.90;;;;;;4177641;28;20701;-63
2023/02/12 00:03:43;;;;;;;68.40;31.87;;;-2.80;99.90;;;;;;4189383;28;20269;-62
2023/02/12 00:05:44;;;;;;;64.73;31.23;;;-2.80;99.90;;;;;;4181171;28;20339;-67
2023/02/12 00:07:45;;;;;;;73.03;32.33;;;-2.80;99.90;;;;;;4177989;28;20343;-63
2023/02/12 00:09:46;;;;;;;66.60;31.30;;;-2.80;99.90;;;;;;4188945;28;20406;-61
2023/02/12 00:11:47;;;;;;;75.27;33.67;;;-2.70;99.90;;;;;;4178807;28;20262;-63
2023/02/12 00:13:49;;;;;;;66.13;31.43;;;-2.70;99.90;;;;;;4180123;28;20649;-59
2023/02/12 00:15:50;;;;;;;71.63;33.47;;;-2.60;99.90;;;;;;4180723;28;20320;-63
2023/02/12 00:17:51;;;;;;;72.40;31.80;;;-2.50;99.90;;;;;;4179534;28;20274;-61
2023/02/12 00:19:52;;;;;;;60.63;30.47;;;-2.50;99.90;;;;;;4188033;28;20289;-62
2023/02/12 00:21:53;;;;;;;66.60;29.70;;;-2.50;99.90;;;;;;4193456;28;20339;-63
2023/02/12 00:23:55;;;;;;;68.10;30.97;;;-2.50;99.90;;;;;;4180992;28;20355;-60
2023/02/12 00:25:56;;;;;;;60.30;27.87;;;-2.50;99.90;;;;;;4191196;28;20359;-60
2023/02/12 00:27:57;;;;;;;63.67;29.23;;;-2.50;99.90;;;;;;4197288;28;20761;-60
2023/02/12 00:29:59;;;;;;;63.07;29.53;;;-2.50;99.90;;;;;;4183215;28;20258;-63
2023/02/12 00:32:00;;;;;;;64.07;29.30;;;-2.50;99.90;;;;;;4193241;28;20285;-64
2023/02/12 00:34:01;;;;;;;66.10;30.00;;;-2.50;99.90;;;;;;4186093;28;20282;-70
2023/02/12 00:36:03;;;;;;;66.77;30.60;;;-2.40;99.90;;;;;;4181535;28;20815;-59
2023/02/12 00:38:04;;;;;;;61.53;29.83;;;-2.50;99.90;;;;;;4188430;28;20262;-70
2023/02/12 00:40:06;;;;;;;65.27;30.43;;;-2.50;99.90;;;;;;4184873;28;20380;-59
2023/02/12 00:42:07;;;;;;;64.43;29.67;;;-2.50;99.90;;;;;;4195199;28;20238;-61
2023/02/12 00:44:09;;;;;;;61.63;30.40;;;-2.50;99.90;;;;;;4193697;28;20334;-66
2023/02/12 00:46:10;;;;;;;60.43;28.73;;;-2.50;99.90;;;;;;4182922;28;20835;-60
2023/02/12 00:48:12;;;;;;;62.63;29.73;;;-2.50;99.90;;;;;;4179310;28;20385;-61
2023/02/12 00:50:13;;;;;;;57.30;28.10;;;-2.50;99.90;;;;;;4180695;28;20282;-73
2023/02/12 00:52:14;;;;;;;60.90;28.80;;;-2.50;99.90;;;;;;4180531;28;20778;-63
2023/02/12 00:54:15;;;;;;;60.90;29.97;;;-2.50;99.90;;;;;;4192204;28;20354;-61
2023/02/12 00:56:16;;;;;;;73.37;30.47;;;-2.50;99.90;;;;;;4194785;28;20315;-64
2023/02/12 00:58:18;;;;;;;68.10;30.87;;;-2.50;99.90;;;;;;4189222;28;20761;-65
2023/02/12 01:00:19;;;;;;;62.23;30.13;;;-2.50;99.90;;;;;;4179154;28;20290;-60
2023/02/12 01:02:20;;;;;;;63.83;29.00;;;-2.60;99.90;;;;;;4195314;28;20265;-60
2023/02/12 01:04:21;;;;;;;66.50;30.27;;;-2.60;99.90;;;;;;4179259;28;20265;-61
2023/02/12 01:06:23;;;;;;;66.87;30.17;;;-2.60;99.90;;;;;;4180161;28;20293;-68
2023/02/12 01:08:24;;;;;;;58.00;27.33;;;-2.60;99.90;;;;;;4180407;28;20323;-63
2023/02/12 01:10:26;;;;;;;62.27;28.20;;;-2.60;99.90;;;;;;4181120;28;20274;-67
2023/02/12 01:12:27;;;;;;;55.03;28.23;;;-2.60;99.90;;;;;;4190219;28;20266;-62
2023/02/12 01:14:28;;;;;;;57.53;27.80;;;-2.60;99.90;;;;;;4179323;28;20308;-58
2023/02/12 01:16:35;;;;;;;59.10;28.90;;;-2.60;99.90;;;;;;4179475;28;20324;-60
2023/02/12 01:18:37;;;;;;;59.10;27.27;;;-2.60;99.90;;;;;;4179056;28;20267;-64
2023/02/12 01:20:39;;;;;;;57.90;27.17;;;-2.60;99.90;;;;;;4184274;28;20269;-61
2023/02/12 01:22:40;;;;;;;63.13;29.03;;;-2.60;99.90;;;;;;4195253;28;20335;-58
2023/02/12 01:24:41;;;;;;;57.17;28.73;;;-2.60;99.90;;;;;;4180517;28;20316;-59
2023/02/12 01:26:42;;;;;;;59.90;28.80;;;-2.60;99.90;;;;;;4178792;28;20851;-60
2023/02/12 01:28:49;;;;;;;61.20;27.97;;;-2.60;99.90;;;;;;4181152;28;20305;-72
2023/02/12 01:30:50;;;;;;;62.90;29.40;;;-2.60;99.90;;;;;;4178765;28;20281;-73
2023/02/12 01:32:51;;;;;;;58.93;28.83;;;-2.60;99.90;;;;;;4180020;28;20266;-68
2023/02/12 01:34:52;;;;;;;55.60;27.23;;;-2.60;99.90;;;;;;4181468;28;20769;-61
2023/02/12 01:36:53;;;;;;;56.90;26.33;;;-2.60;99.90;;;;;;4194553;28;20343;-61
2023/02/12 01:38:56;;;;;;;55.73;27.10;;;-2.50;99.90;;;;;;4194786;28;20269;-71
2023/02/12 01:41:02;;;;;;;53.10;25.40;;;-2.60;99.90;;;;;;4194321;28;20274;-58
2023/02/12 01:43:05;;;;;;;58.03;26.73;;;-2.50;99.90;;;;;;4183544;28;20315;-62
2023/02/12 01:45:12;;;;;;;56.47;26.60;;;-2.50;99.90;;;;;;4195334;28;20648;-68
2023/02/12 01:47:17;;;;;;;58.60;26.13;;;-2.60;99.90;;;;;;4183531;28;20294;-62
2023/02/12 01:49:30;;;;;;;58.63;27.57;;;-2.50;99.90;;;;;;4192238;28;20322;-64
2023/02/12 01:51:33;;;;;;;52.63;26.30;;;-2.50;99.90;;;;;;4193597;28;20258;-61
2023/02/12 01:53:38;;;;;;;53.93;25.43;;;-2.50;99.90;;;;;;4195000;28;20761;-61
2023/02/12 01:55:41;;;;;;;52.57;25.63;;;-2.50;99.90;;;;;;4192871;28;20313;-61
2023/02/12 01:57:46;;;;;;;51.87;25.40;;;-2.50;99.90;;;;;;4194824;28;20290;-59
2023/02/12 01:59:53;;;;;;;60.13;26.53;;;-2.50;99.90;;;;;;4195155;28;20277;-61
2023/02/12 02:01:54;;;;;;;55.20;26.00;;;-2.50;99.90;;;;;;4194065;28;20327;-60
2023/02/12 02:04:01;;;;;;;58.63;27.83;;;-2.50;99.90;;;;;;4195653;28;20253;-61
2023/02/12 02:06:13;;;;;;;59.67;28.83;;;-2.40;99.90;;;;;;4194191;28;20293;-61
2023/02/12 02:08:15;;;;;;;56.30;24.87;;;-2.50;99.90;;;;;;4195204;28;20819;-61
2023/02/12 02:10:16;;;;;;;48.23;24.67;;;-2.50;99.90;;;;;;4194457;28;20277;-62
2023/02/12 02:14:39;;;;;;;51.13;24.47;;;-2.50;99.90;;;;;;4178427;28;20339;-61
2023/02/12 02:16:46;;;;;;;53.07;25.10;;;-2.50;99.90;;;;;;4183118;28;20274;-60
2023/02/12 02:18:58;;;;;;;50.70;24.23;;;-2.50;99.90;;;;;;4194220;28;20307;-61
2023/02/12 02:21:23;;;;;;;52.97;24.47;;;-2.50;99.90;;;;;;4195641;28;20755;-61
2023/02/12 02:23:24;;;;;;;57.23;26.30;;;-2.50;99.90;;;;;;4194488;28;20265;-60
2023/02/12 02:25:28;;;;;;;54.07;25.07;;;-2.50;99.90;;;;;;4195271;28;20318;-60
2023/02/12 02:27:54;;;;;;;53.87;27.30;;;-2.50;99.90;;;;;;4194425;28;20764;-59
2023/02/12 02:30:14;;;;;;;54.47;26.67;;;-2.50;99.90;;;;;;4194914;28;20294;-61
2023/02/12 02:32:30;;;;;;;53.65;24.17;;;-2.50;99.90;;;;;;4180953;28;20261;-61
2023/02/12 02:34:52;;;;;;;49.27;24.80;;;-2.50;99.90;;;;;;4178061;28;20094;-63
2023/02/12 02:37:18;;;;;;;54.63;26.90;;;-2.50;99.90;;;;;;4180796;28;20277;-61
2023/02/12 02:39:40;;;;;;;51.83;23.77;;;-2.50;99.90;;;;;;4194082;28;20877;-61
2023/02/12 02:42:00;;;;;;;56.57;25.50;;;-2.50;99.90;;;;;;4194566;28;20339;-61
2023/02/12 02:44:09;;;;;;;52.45;24.67;;;-2.60;99.90;;;;;;4193737;28;20273;-59
2023/02/12 02:46:43;;;;;;;55.33;25.33;;;-2.50;99.90;;;;;;4194111;28;20049;-59
2023/02/12 02:48:51;;;;;;;59.27;25.53;;;-2.50;99.90;;;;;;4189503;28;20630;-60
2023/02/12 02:50:57;;;;;;;57.30;25.27;;;-2.50;99.90;;;;;;4193472;28;20273;-61
2023/02/12 02:53:04;;;;;;;60.23;28.00;;;-2.50;99.90;;;;;;4191361;28;20273;-61
2023/02/12 02:55:08;;;;;;;53.00;24.73;;;-2.50;99.90;;;;;;4194452;28;20265;-59
2023/02/12 02:57:16;;;;;;;57.40;26.67;;;-2.50;99.90;;;;;;4194001;28;20795;-61
2023/02/12 02:59:33;;;;;;;55.27;25.70;;;-2.50;99.90;;;;;;4184229;28;20332;-60
2023/02/12 03:01:37;;;;;;;54.33;25.77;;;-2.50;99.90;;;;;;4177370;28;20324;-60
2023/02/12 03:03:45;;;;;;;51.90;25.50;;;-2.50;99.90;;;;;;4178605;28;20274;-60
2023/02/12 03:05:49;;;;;;;59.30;25.73;;;-2.50;99.90;;;;;;4177253;28;20728;-61
2023/02/12 03:07:56;;;;;;;55.97;26.90;;;-2.50;99.90;;;;;;4179427;28;20328;-61
2023/02/12 03:10:10;;;;;;;59.30;26.33;;;-2.50;99.90;;;;;;4192103;28;20668;-58
2023/02/12 03:12:37;;;;;;;53.57;25.40;;;-2.50;99.90;;;;;;4193238;28;20266;-59
2023/02/12 03:14:56;;;;;;;55.07;25.70;;;-2.50;99.90;;;;;;4190839;28;20274;-58
2023/02/12 03:17:09;;;;;;;56.20;25.83;;;-2.40;99.90;;;;;;4188691;28;20262;-60
2023/02/12 03:19:16;;;;;;;56.10;25.30;;;-2.40;99.90;;;;;;4177039;28;20761;-62
2023/02/12 03:21:24;;;;;;;54.17;24.63;;;-2.40;99.90;;;;;;4190742;28;20265;-61
2023/02/12 03:23:30;;;;;;;51.30;24.30;;;-2.40;99.90;;;;;;4186981;28;20282;-62
2023/02/12 03:25:39;;;;;;;51.57;24.97;;;-2.40;99.90;;;;;;4178404;28;20258;-59
2023/02/12 03:27:51;;;;;;;51.80;24.13;;;-2.40;99.90;;;;;;4177910;28;20278;-61
2023/02/12 03:29:52;;;;;;;49.43;24.57;;;-2.40;99.90;;;;;;4191529;28;20285;-68
2023/02/12 03:32:24;;;;;;;49.50;24.97;;;-2.40;99.90;;;;;;4176961;28;20312;-60
2023/02/12 03:34:44;;;;;;;53.67;23.40;;;-2.40;99.90;;;;;;4188732;28;20273;-66
2023/02/12 03:36:57;;;;;;;56.92;25.13;;;-2.40;99.90;;;;;;4176558;28;20278;-59
2023/02/12 03:39:15;;;;;;;52.10;24.97;;;-2.40;99.90;;;;;;4178238;28;20087;-58
2023/02/12 03:41:31;;;;;;;47.27;23.20;;;-2.40;99.90;;;;;;4176974;28;20282;-64
2023/02/12 03:43:49;;;;;;;52.10;25.10;;;-2.40;99.90;;;;;;4177758;28;20270;-60
2023/02/12 03:46:46;;;;;;;47.70;23.33;;;-2.40;99.90;;;;;;4187686;28;20275;-61
2023/02/12 03:49:21;;;;;;;47.50;23.27;;;-2.40;99.90;;;;;;4157020;28;20294;-61
2023/02/12 03:51:25;;;;;;;54.60;24.90;;;-2.40;99.90;;;;;;4144360;28;21240;-61
2023/02/12 03:53:27;;;;;;;53.60;25.27;;;-2.40;99.90;;;;;;4172806;28;20683;-60
2023/02/12 03:55:33;;;;;;;52.13;23.67;;;-2.30;99.90;;;;;;4198089;28;20717;-62
2023/02/12 03:57:40;;;;;;;55.53;25.83;;;-2.30;99.90;;;;;;4188601;28;20595;-60
2023/02/12 03:59:42;;;;;;;55.70;26.20;;;-2.30;99.90;;;;;;4181188;28;20324;-61
2023/02/12 04:01:44;;;;;;;53.43;24.73;;;-2.30;99.90;;;;;;4195395;28;20273;-61
2023/02/12 04:03:47;;;;;;;53.90;25.47;;;-2.30;99.90;;;;;;4191621;28;20286;-61
2023/02/12 04:05:48;;;;;;;51.63;25.87;;;-2.30;99.90;;;;;;4189654;28;20281;-60
2023/02/12 04:07:51;;;;;;;56.27;26.87;;;-2.30;99.90;;;;;;4197099;28;20681;-60
2023/02/12 04:09:52;;;;;;;49.43;25.07;;;-2.30;99.90;;;;;;4194555;28;20618;-60
2023/02/12 04:11:53;;;;;;;56.73;26.73;;;-2.30;99.90;;;;;;4185451;28;20286;-59
2023/02/12 04:14:30;;;;;;;55.33;26.47;;;-2.30;99.90;;;;;;4180660;28;20330;-60
2023/02/12 04:16:58;;;;;;;57.53;27.00;;;-2.20;99.90;;;;;;4180488;28;20281;-61
2023/02/12 04:18:59;;;;;;;52.43;25.93;;;-2.20;99.90;;;;;;4179650;28;20282;-60
2023/02/12 04:21:22;;;;;;;56.30;27.13;;;-2.20;99.90;;;;;;4181347;28;20738;-59
2023/02/12 04:23:43;;;;;;;61.03;28.07;;;-2.10;99.90;;;;;;4181696;28;20270;-61
2023/02/12 04:26:03;;;;;;;53.63;25.87;;;-2.20;99.90;;;;;;4197060;28;20319;-61
2023/02/12 04:28:35;;;;;;;54.93;25.83;;;-2.10;99.90;;;;;;4194407;28;20297;-59
2023/02/12 04:30:53;;;;;;;52.83;25.03;;;-2.20;99.90;;;;;;4186577;28;20323;-59
2023/02/12 04:33:07;;;;;;;53.37;24.20;;;-2.20;99.90;;;;;;4179673;28;20266;-59
2023/02/12 04:35:31;;;;;;;52.23;26.23;;;-2.20;99.90;;;;;;4185716;28;20344;-60
2023/02/12 04:37:40;;;;;;;54.20;26.27;;;-2.10;99.90;;;;;;4196227;28;20295;-59
2023/02/12 04:39:43;;;;;;;53.00;25.30;;;-2.20;99.90;;;;;;4196866;28;20652;-60
2023/02/12 04:41:44;;;;;;;54.10;26.97;;;-2.20;99.90;;;;;;4195765;28;20334;-58
2023/02/12 04:43:45;;;;;;;53.47;27.27;;;-2.10;99.90;;;;;;4184457;28;20282;-58
2023/02/12 04:45:46;;;;;;;51.70;25.67;;;-2.10;99.90;;;;;;4180668;28;20324;-60
2023/02/12 04:47:47;;;;;;;52.57;24.07;;;-2.10;99.90;;;;;;4184508;28;20362;-62
2023/02/12 04:49:48;;;;;;;49.00;25.77;;;-2.10;99.90;;;;;;4186452;28;20278;-61
2023/02/12 04:51:50;;;;;;;47.83;24.17;;;-2.10;99.90;;;;;;4183203;28;20610;-60
2023/02/12 04:53:51;;;;;;;52.93;26.53;;;-2.00;99.90;;;;;;4192181;28;20814;-60
2023/02/12 04:55:54;;;;;;;54.00;26.27;;;-2.00;99.90;;;;;;4197010;28;20292;-62
2023/02/12 04:57:55;;;;;;;57.50;25.67;;;-2.00;99.90;;;;;;4193994;28;20806;-64
2023/02/12 04:59:56;;;;;;;52.37;26.93;;;-2.00;99.90;;;;;;4194129;28;20308;-61
2023/02/12 05:01:57;;;;;;;58.23;28.10;;;-2.00;99.90;;;;;;4181312;28;20332;-62
2023/02/12 05:03:58;;;;;;;59.93;27.73;;;-2.00;99.90;;;;;;4194772;28;20323;-66
2023/02/12 05:06:05;;;;;;;53.20;26.53;;;-1.90;99.90;;;;;;4184809;28;20681;-60
2023/02/12 05:08:06;;;;;;;52.13;27.07;;;-1.90;99.90;;;;;;4196222;28;20289;-58
2023/02/12 05:10:09;;;;;;;55.07;26.30;;;-1.90;99.90;;;;;;4195611;28;20253;-61
2023/02/12 05:12:10;;;;;;;55.00;27.23;;;-1.90;99.90;;;;;;4195772;28;20656;-61
2023/02/12 05:14:11;;;;;;;49.70;25.87;;;-1.90;99.90;;;;;;4192997;28;20336;-62
2023/02/12 05:16:12;;;;;;;53.90;26.23;;;-1.80;99.90;;;;;;4193673;28;20285;-61
2023/02/12 05:18:13;;;;;;;50.87;25.40;;;-1.80;99.90;;;;;;4196293;28;20606;-62
2023/02/12 05:20:15;;;;;;;59.33;27.20;;;-1.90;99.90;;;;;;4182472;28;20389;-59
2023/02/12 05:22:16;;;;;;;54.90;28.57;;;-1.80;99.90;;;;;;4181354;28;20293;-61
2023/02/12 05:24:17;;;;;;;59.00;28.50;;;-1.90;99.90;;;;;;4178284;28;20758;-60
2023/02/12 05:26:20;;;;;;;58.50;29.33;;;-1.90;99.90;;;;;;4179948;28;20262;-61
2023/02/12 05:28:22;;;;;;;56.37;28.63;;;-1.90;99.90;;;;;;4178688;28;20298;-61
2023/02/12 05:30:23;;;;;;;57.77;27.13;;;-2.00;99.90;;;;;;4179780;28;20669;-61
2023/02/12 05:32:24;;;;;;;55.30;27.00;;;-2.00;99.90;;;;;;4179616;28;20258;-61
2023/02/12 05:34:25;;;;;;;51.27;25.63;;;-2.00;99.90;;;;;;4179203;28;20835;-61
2023/02/12 05:36:27;;;;;;;64.80;29.53;;;-2.10;99.90;;;;;;4180796;28;20284;-61
2023/02/12 05:38:28;;;;;;;58.83;28.60;;;-2.00;99.90;;;;;;4187417;28;20762;-60
2023/02/12 05:40:29;;;;;;;58.80;28.77;;;-2.00;99.90;;;;;;4179276;28;20296;-61
2023/02/12 05:42:30;;;;;;;58.57;27.23;;;-2.00;99.90;;;;;;4178739;28;20335;-61
2023/02/12 05:44:31;;;;;;;55.63;25.83;;;-2.00;99.90;;;;;;4179598;28;20332;-61
2023/02/12 05:46:33;;;;;;;56.40;27.37;;;-2.00;99.90;;;;;;4187113;28;20326;-61
2023/02/12 05:48:35;;;;;;;51.57;25.50;;;-2.00;99.90;;;;;;4194502;28;20269;-62
2023/02/12 05:50:36;;;;;;;55.23;26.00;;;-2.00;99.90;;;;;;4194438;28;20278;-61
2023/02/12 05:52:37;;;;;;;52.30;24.40;;;-2.00;99.90;;;;;;4192832;28;20273;-61
2023/02/12 05:54:38;;;;;;;52.53;26.27;;;-2.00;99.90;;;;;;4189031;28;20358;-61
2023/02/12 05:56:45;;;;;;;53.37;25.60;;;-2.00;99.90;;;;;;4194100;28;20676;-61
2023/02/12 05:58:50;;;;;;;55.70;26.90;;;-2.00;99.90;;;;;;4194368;28;20659;-60
2023/02/12 06:00:51;;;;;;;58.27;28.00;;;-2.00;99.90;;;;;;4186876;28;20270;-61
2023/02/12 06:02:52;;;;;;;56.63;26.83;;;-2.00;99.90;;;;;;4187259;28;20342;-61
2023/02/12 06:04:54;;;;;;;58.47;28.50;;;-2.00;99.90;;;;;;4192592;28;20327;-60
2023/02/12 06:06:55;;;;;;;53.53;26.17;;;-2.10;99.90;;;;;;4190946;28;20294;-61
2023/02/12 06:08:57;;;;;;;62.60;29.37;;;-2.10;99.90;;;;;;4194987;28;20304;-64
2023/02/12 06:11:01;;;;;;;64.30;29.30;;;-2.10;99.90;;;;;;4185024;28;20648;-63
2023/02/12 06:13:02;;;;;;;54.90;27.70;;;-2.10;99.90;;;;;;4191383;28;20652;-61
2023/02/12 06:15:04;;;;;;;59.77;28.27;;;-2.20;99.90;;;;;;4195242;28;20308;-62
2023/02/12 06:17:05;;;;;;;54.83;27.90;;;-2.20;99.90;;;;;;4194690;28;20265;-54
2023/02/12 06:19:06;;;;;;;59.57;27.03;;;-2.10;99.90;;;;;;4190804;28;20304;-70
2023/02/12 06:21:07;;;;;;;56.83;28.33;;;-2.20;99.90;;;;;;4192999;28;20297;-61
2023/02/12 06:23:08;;;;;;;55.60;27.13;;;-2.20;99.90;;;;;;4194003;28;20319;-61
2023/02/12 06:25:10;;;;;;;60.03;27.33;;;-2.20;99.90;;;;;;4179647;28;20274;-60
2023/02/12 06:27:11;;;;;;;57.17;27.67;;;-2.10;99.90;;;;;;4178900;28;20289;-69
2023/02/12 06:29:12;;;;;;;52.70;27.07;;;-2.10;99.90;;;;;;4178411;28;20282;-66
2023/02/12 06:31:17;;;;;;;56.53;26.33;;;-2.10;99.90;;;;;;4178483;28;20807;-60
2023/02/12 06:33:18;;;;;;;63.27;28.93;;;-2.10;99.90;;;;;;4190420;28;20675;-60
2023/02/12 06:35:19;;;;;;;56.43;28.80;;;-2.00;99.90;;;;;;4182114;28;20286;-60
2023/02/12 06:37:20;;;;;;;60.73;28.90;;;-2.00;99.90;;;;;;4186161;28;20273;-63
2023/02/12 06:39:21;;;;;;;58.13;27.43;;;-2.00;99.90;;;;;;4195055;28;20322;-63
2023/02/12 06:41:23;;;;;;;56.13;27.70;;;-1.90;99.90;;;;;;4187485;28;20316;-68
2023/02/12 06:43:24;;;;;;;59.13;29.43;;;-2.00;99.90;;;;;;4180206;28;20278;-61
2023/02/12 06:45:25;;;;;;;53.83;28.07;;;-1.90;99.90;;;;;;4187308;28;20274;-61
2023/02/12 06:47:26;;;;;;;63.10;29.80;;;-1.80;99.90;;;;;;4175835;28;20294;-67
2023/02/12 06:49:28;;;;;;;60.70;28.10;;;-1.80;99.90;;;;;;4178037;28;20335;-61
2023/02/12 06:51:30;;;;;;;62.50;30.33;;;-1.70;99.90;;;;;;4182450;28;21157;-60
2023/02/12 06:53:33;;;;;;;58.70;29.77;;;-1.70;99.90;;;;;;4179488;28;20324;-67
2023/02/12 06:55:34;;;;;;;56.40;28.50;;;-1.60;99.90;;;;;;4178256;28;20351;-60
2023/02/12 06:57:35;;;;;;;62.77;31.60;;;-1.60;99.90;;;;;;4178340;28;20266;-61
2023/02/12 06:59:37;;;;;;;61.90;28.90;;;-1.50;99.90;;;;;;4182616;28;20297;-61
2023/02/12 07:01:38;;;;;;;66.30;31.37;;;-1.40;99.90;;;;;;4187646;28;20789;-60
2023/02/12 07:03:46;;;;;;;60.93;29.60;;;-1.40;99.90;;;;;;4178226;28;20282;-59
2023/02/12 07:05:47;;;;;;;65.10;30.10;;;-1.30;99.90;;;;;;4181631;28;20761;-62
2023/02/12 07:07:49;;;;;;;66.70;30.50;;;-1.20;99.90;;;;;;4191170;28;20305;-61
2023/02/12 07:09:50;;;;;;;65.33;30.90;;;-1.30;99.90;;;;;;4186551;28;20290;-71
2023/02/12 07:11:51;;;;;;;60.67;29.23;;;-1.30;99.90;;;;;;4178407;28;20265;-64
2023/02/12 07:13:52;;;;;;;68.10;30.97;;;-1.30;99.90;;;;;;4177932;28;20282;-71
2023/02/12 07:15:54;;;;;;;64.53;33.33;;;-1.20;99.90;;;;;;4179358;28;20269;-62
2023/02/12 07:17:55;;;;;;;61.47;31.00;;;-1.20;99.90;;;;;;4188629;28;20672;-61
2023/02/12 07:19:56;;;;;;;65.80;32.23;;;-1.20;99.90;;;;;;4177659;28;20727;-59
2023/02/12 07:21:57;;;;;;;68.80;32.80;;;-1.20;99.90;;;;;;4176589;28;20254;-60
2023/02/12 07:23:58;;;;;;;74.43;34.77;;;-1.20;99.90;;;;;;4178482;28;20352;-61
2023/02/12 07:26:03;;;;;;;67.63;33.73;;;-1.10;99.90;;;;;;4193249;28;20281;-68
2023/02/12 07:28:04;;;;;;;66.70;32.37;;;-1.10;99.90;;;;;;4192910;28;20367;-61
2023/02/12 07:30:06;;;;;;;72.57;33.90;;;-1.10;99.90;;;;;;4179402;28;20294;-61
2023/02/12 07:32:07;;;;;;;73.80;35.17;;;-1.00;99.90;;;;;;4192509;28;20741;-59
2023/02/12 07:34:09;;;;;;;74.63;36.57;;;-1.00;99.90;;;;;;4181480;28;20282;-60
2023/02/12 07:36:15;;;;;;;79.10;38.73;;;-0.90;99.90;;;;;;4178317;28;20274;-61
2023/02/12 07:38:17;;;;;;;74.83;36.80;;;-0.70;99.90;;;;;;4184826;28;20704;-61
2023/02/12 07:40:18;;;;;;;76.43;38.20;;;-0.70;99.90;;;;;;4181986;28;20274;-61
2023/02/12 07:42:19;;;;;;;82.83;39.20;;;-0.70;99.90;;;;;;4176106;28;20705;-72
2023/02/12 07:44:21;;;;;;;88.13;39.70;;;-0.70;99.90;;;;;;4177150;28;20319;-62
2023/02/12 07:46:34;;;;;;;87.63;40.10;;;-0.60;99.90;;;;;;4185499;28;20351;-72
2023/02/12 07:48:35;;;;;;;87.47;41.47;;;-0.50;99.90;;;;;;4193609;28;20692;-68
2023/02/12 07:50:36;;;;;;;106.97;50.70;;;-0.40;99.90;;;;;;4193513;28;20327;-61
2023/02/12 07:52:37;;;;;;;94.97;48.03;;;-0.30;99.90;;;;;;4194277;28;20746;-62
2023/02/12 07:54:38;;;;;;;98.77;46.57;;;-0.40;99.90;;;;;;4192459;28;20277;-61
2023/02/12 07:56:41;;;;;;;109.23;51.50;;;-0.30;99.90;;;;;;4190311;28;20289;-60
2023/02/12 07:58:44;;;;;;;103.73;47.73;;;-0.30;99.90;;;;;;4192823;28;20318;-61
2023/02/12 08:00:45;;;;;;;98.27;45.47;;;-0.30;99.90;;;;;;4192540;28;20297;-61
2023/02/12 08:02:53;;;;;;;82.13;40.50;;;-0.20;99.90;;;;;;4186819;28;20258;-61
2023/02/12 08:04:57;;;;;;;110.60;52.93;;;-0.20;99.90;;;;;;4176775;28;20835;-62
2023/02/12 08:06:58;;;;;;;101.23;49.70;;;-0.20;99.90;;;;;;4179162;28;20273;-63
2023/02/12 08:09:01;;;;;;;111.27;57.47;;;-0.20;99.90;;;;;;4183045;28;20367;-62
2023/02/12 08:11:02;;;;;;;118.60;62.30;;;-0.20;99.90;;;;;;4190626;28;20334;-64
2023/02/12 08:13:03;;;;;;;129.17;73.13;;;-0.10;99.90;;;;;;4182790;28;20269;-61
2023/02/12 08:15:05;;;;;;;109.67;56.70;;;0.00;99.90;;;;;;4192473;28;20330;-62
2023/02/12 08:17:07;;;;;;;98.27;50.43;;;0.00;99.90;;;;;;4193485;28;20257;-60
2023/02/12 08:19:08;;;;;;;85.73;43.30;;;0.10;99.90;;;;;;4194373;28;20342;-62
2023/02/12 08:21:18;;;;;;;85.60;42.50;;;0.10;99.90;;;;;;4193781;28;21415;-61
2023/02/12 08:23:19;;;;;;;87.63;42.27;;;0.20;99.90;;;;;;4190748;28;20291;-63
2023/02/12 08:25:20;;;;;;;94.43;43.43;;;0.30;99.90;;;;;;4177032;28;20379;-62
2023/02/12 08:27:21;;;;;;;97.07;45.67;;;0.50;99.90;;;;;;4181809;28;20269;-60
2023/02/12 08:29:25;;;;;;;96.20;47.03;;;0.60;99.90;;;;;;4186949;28;20290;-61
2023/02/12 08:31:33;;;;;;;86.17;42.13;;;0.70;99.90;;;;;;4184208;28;20302;-60
2023/02/12 08:33:34;;;;;;;84.50;42.73;;;0.80;99.90;;;;;;4195351;28;20250;-61
2023/02/12 08:35:35;;;;;;;90.33;43.30;;;0.90;99.90;;;;;;4185343;28;20274;-60
2023/02/12 08:37:36;;;;;;;93.20;47.00;;;1.00;99.90;;;;;;4190930;28;20664;-60
2023/02/12 08:39:37;;;;;;;90.33;46.63;;;1.10;99.90;;;;;;4179581;28;20274;-65
2023/02/12 08:41:41;;;;;;;92.00;45.57;;;1.10;99.90;;;;;;4185813;28;20761;-61
2023/02/12 08:43:42;;;;;;;95.20;45.07;;;1.20;99.90;;;;;;4195452;28;20402;-61
2023/02/12 08:45:43;;;;;;;91.70;46.43;;;1.40;99.90;;;;;;4196630;28;21237;-61
2023/02/12 08:47:47;;;;;;;80.37;41.27;;;1.40;99.90;;;;;;4195015;28;20369;-61
2023/02/12 08:49:48;;;;;;;84.77;43.43;;;1.30;99.90;;;;;;4194614;28;20273;-61
2023/02/12 08:51:53;;;;;;;81.00;42.43;;;1.30;99.90;;;;;;4180756;28;20293;-61
2023/02/12 08:53:57;;;;;;;87.67;42.60;;;1.30;99.90;;;;;;4180665;28;20333;-61
2023/02/12 08:55:58;;;;;;;100.33;44.00;;;1.30;99.90;;;;;;4180244;28;21027;-61
2023/02/12 08:58:01;;;;;;;86.90;43.67;;;1.30;99.90;;;;;;4179867;28;20273;-59
2023/02/12 09:00:03;;;;;;;87.87;44.03;;;1.40;99.90;;;;;;4177362;28;20344;-61
2023/02/12 09:02:07;;;;;;;93.13;45.77;;;1.60;99.90;;;;;;4190620;28;20725;-61
2023/02/12 09:04:17;;;;;;;94.27;44.07;;;1.80;99.90;;;;;;4178962;28;20332;-62
2023/02/12 09:06:20;;;;;;;84.43;41.17;;;1.90;99.90;;;;;;4183340;28;20676;-62
2023/02/12 09:08:21;;;;;;;93.80;42.50;;;1.90;99.90;;;;;;4195379;28;20359;-64
2023/02/12 09:10:22;;;;;;;83.43;40.07;;;1.90;99.90;;;;;;4194150;28;20426;-64
2023/02/12 09:12:23;;;;;;;81.13;40.10;;;2.10;99.90;;;;;;4184878;28;20242;-62
2023/02/12 09:14:24;;;;;;;91.30;42.03;;;2.30;99.90;;;;;;4194916;28;20288;-63
2023/02/12 09:16:27;;;;;;;80.53;42.23;;;2.50;99.90;;;;;;4193988;28;20297;-63
2023/02/12 09:18:29;;;;;;;84.17;42.03;;;2.70;99.90;;;;;;4181155;28;20277;-63
2023/02/12 09:20:30;;;;;;;79.87;41.00;;;2.80;99.90;;;;;;4179614;28;20785;-68
2023/02/12 09:22:31;;;;;;;82.23;37.17;;;2.90;99.90;;;;;;4193463;28;20346;-61
2023/02/12 09:24:32;;;;;;;81.30;40.53;;;3.00;99.90;;;;;;4195943;28;20764;-64
2023/02/12 09:26:34;;;;;;;93.67;37.37;;;2.80;99.90;;;;;;4194871;28;21055;-64
2023/02/12 09:28:35;;;;;;;75.43;37.60;;;2.80;99.90;;;;;;4195211;28;20277;-64
2023/02/12 09:30:38;;;;;;;70.73;35.80;;;2.80;99.90;;;;;;4190243;28;20334;-62
2023/02/12 09:32:39;;;;;;;69.83;35.47;;;3.00;99.90;;;;;;4186965;28;20665;-62
2023/02/12 09:34:40;;;;;;;74.80;34.53;;;3.00;99.90;;;;;;4178826;28;20664;-68
2023/02/12 09:36:42;;;;;;;80.43;39.00;;;2.90;99.90;;;;;;4182545;28;20340;-62
2023/02/12 09:38:43;;;;;;;69.97;33.53;;;2.70;99.90;;;;;;4183954;28;20324;-67
2023/02/12 09:41:17;;;;;;;68.67;33.57;;;2.80;99.90;;;;;;4189745;28;20378;-61
2023/02/12 09:43:47;;;;;;;69.23;33.77;;;3.00;99.90;;;;;;4164092;28;20278;-61
2023/02/12 09:46:07;;;;;;;82.20;35.97;;;3.00;99.90;;;;;;4178995;28;20278;-63
2023/02/12 09:48:24;;;;;;;67.93;35.10;;;3.20;99.90;;;;;;4183204;28;20632;-64
2023/02/12 09:50:47;;;;;;;74.67;33.97;;;3.30;99.90;;;;;;4190848;28;20049;-65
2023/02/12 09:52:49;;;;;;;71.43;34.63;;;3.40;99.90;;;;;;4186342;28;20827;-61
2023/02/12 09:54:50;;;;;;;68.23;34.47;;;3.50;99.90;;;;;;4179285;28;20270;-62
2023/02/12 09:56:56;;;;;;;69.53;35.30;;;3.70;99.90;;;;;;4178534;28;20327;-64
2023/02/12 09:58:59;;;;;;;73.70;34.87;;;4.00;99.90;;;;;;4188873;28;20323;-65
2023/02/12 10:01:09;;;;;;;58.60;28.90;;;4.30;99.90;;;;;;4186450;28;20343;-64
2023/02/12 10:03:16;;;;;;;56.13;27.00;;;4.20;99.90;;;;;;4195334;28;20319;-68
2023/02/12 10:05:21;;;;;;;51.63;27.37;;;4.20;99.90;;;;;;4178393;28;20355;-70
2023/02/12 10:07:32;;;;;;;60.20;26.53;;;4.40;99.90;;;;;;4180057;28;20286;-64
2023/02/12 10:10:01;;;;;;;49.70;24.58;;;4.40;99.90;;;;;;4177671;28;20373;-66
2023/02/12 10:12:47;;;;;;;55.40;26.10;;;4.40;99.90;;;;;;4179688;28;20028;-63
2023/02/12 10:14:58;;;;;;;56.27;26.07;;;4.40;99.90;;;;;;4156108;28;20331;-62
2023/02/12 10:17:17;;;;;;;49.58;24.23;;;4.50;99.90;;;;;;4193451;28;20281;-63
2023/02/12 10:19:45;;;;;;;45.10;23.83;;;4.50;99.90;;;;;;4193023;28;20052;-62
2023/02/12 10:22:01;;;;;;;59.97;27.00;;;4.40;99.90;;;;;;4188645;28;20683;-63
2023/02/12 10:24:32;;;;;;;45.83;24.30;;;4.50;99.90;;;;;;4192579;28;20344;-66
2023/02/12 10:26:48;;;;;;;47.97;24.57;;;4.50;99.90;;;;;;4181278;28;20627;-61
2023/02/12 10:28:51;;;;;;;47.17;24.47;;;4.40;99.90;;;;;;4183211;28;20367;-60
2023/02/12 10:31:03;;;;;;;49.23;23.27;;;4.40;99.90;;;;;;4191730;28;20281;-61
2023/02/12 10:33:10;;;;;;;52.97;24.77;;;4.40;99.90;;;;;;4195256;28;20277;-61
2023/02/12 10:35:17;;;;;;;46.00;22.90;;;4.60;99.90;;;;;;4193752;28;20696;-60
2023/02/12 10:37:36;;;;;;;50.27;25.40;;;4.70;99.90;;;;;;4184791;28;20343;-62
2023/02/12 10:39:47;;;;;;;45.97;24.03;;;4.60;99.90;;;;;;4189932;28;20351;-59
2023/02/12 10:41:58;;;;;;;43.15;22.90;;;4.60;99.90;;;;;;4191995;28;20339;-60